Time;durP1;ratioP1;P1;durP2;ratioP2;P2;SDS_P1;SDS_P2;PMS_P1;PMS_P2;Temp;Humidity;BMP_temperature;BMP_pressure;BME280_temperature;BME280_humidity;BME280_pressure;Samples;Min_cycle;Max_cycle;Signal;HPM_P1;HPM_P2
2023/05/23 00:01:37;;;;;;;34.08;21.98;;;15.00;99.90;;;;;;5067184;28;20044;-33
2023/05/23 00:04:03;;;;;;;35.58;20.85;;;14.90;99.90;;;;;;5071465;28;20032;-32
2023/05/23 00:06:29;;;;;;;30.92;20.52;;;14.80;99.90;;;;;;5074899;28;20032;-33
2023/05/23 00:08:56;;;;;;;30.88;19.30;;;14.80;99.90;;;;;;5075006;28;20115;-33
2023/05/23 00:11:25;;;;;;;33.88;20.60;;;14.80;99.90;;;;;;5075658;28;20036;-32
2023/05/23 00:13:52;;;;;;;32.03;20.02;;;14.80;99.90;;;;;;5072789;28;20044;-33
2023/05/23 00:16:18;;;;;;;33.03;18.95;;;14.80;99.90;;;;;;5070184;28;20119;-33
2023/05/23 00:18:47;;;;;;;29.45;17.92;;;14.80;99.90;;;;;;5071879;28;20505;-33
2023/05/23 00:21:12;;;;;;;28.15;17.88;;;14.80;99.90;;;;;;5075453;28;20410;-33
2023/05/23 00:23:41;;;;;;;28.25;18.30;;;14.80;99.90;;;;;;5073115;28;20032;-33
2023/05/23 00:26:08;;;;;;;25.80;17.15;;;14.80;99.90;;;;;;5064957;28;20032;-33
2023/05/23 00:28:33;;;;;;;24.80;16.38;;;14.80;99.90;;;;;;5072459;28;20552;-33
2023/05/23 00:30:59;;;;;;;20.30;14.52;;;14.80;99.90;;;;;;5058352;28;20127;-33
2023/05/23 00:33:25;;;;;;;21.60;14.93;;;14.80;99.90;;;;;;5074207;28;20079;-33
2023/05/23 00:35:51;;;;;;;19.70;14.40;;;14.80;99.90;;;;;;5066917;28;20445;-33
2023/05/23 00:38:17;;;;;;;22.10;14.68;;;14.80;99.90;;;;;;5063665;28;20044;-33
2023/05/23 00:40:43;;;;;;;17.48;12.98;;;14.80;99.90;;;;;;5072123;28;20124;-33
2023/05/23 00:43:09;;;;;;;20.30;14.90;;;14.80;99.90;;;;;;5069768;28;20114;-33
2023/05/23 00:45:34;;;;;;;18.45;14.27;;;14.70;99.90;;;;;;5068699;28;20036;-35
2023/05/23 00:48:02;;;;;;;19.38;13.57;;;14.80;99.90;;;;;;5071000;28;20024;-32
2023/05/23 00:50:29;;;;;;;18.70;13.25;;;14.70;99.90;;;;;;5062620;28;20028;-33
2023/05/23 00:52:56;;;;;;;18.58;13.52;;;14.70;99.90;;;;;;5066302;28;20101;-33
2023/05/23 00:55:23;;;;;;;16.65;12.95;;;14.70;99.90;;;;;;5082495;28;20093;-33
2023/05/23 00:57:50;;;;;;;14.60;12.43;;;14.70;99.90;;;;;;5072691;28;20043;-33
2023/05/23 01:00:18;;;;;;;16.52;12.52;;;14.70;99.90;;;;;;5074991;28;20059;-33
2023/05/23 01:02:46;;;;;;;15.30;12.82;;;14.70;99.90;;;;;;5061093;28;20036;-33
2023/05/23 01:05:16;;;;;;;14.68;12.40;;;14.70;99.90;;;;;;5066807;28;20181;-33
2023/05/23 01:07:43;;;;;;;15.00;12.63;;;14.70;99.90;;;;;;5073907;28;20360;-33
2023/05/23 01:10:10;;;;;;;18.02;14.02;;;14.60;99.90;;;;;;5074809;28;20032;-33
2023/05/23 01:12:50;;;;;;;17.17;14.45;;;14.70;99.90;;;;;;5064235;28;20393;-31
2023/05/23 01:15:19;;;;;;;16.48;14.50;;;14.60;99.90;;;;;;5070414;28;20392;-32
2023/05/23 01:17:57;;;;;;;17.15;14.75;;;14.60;99.90;;;;;;5062231;28;20178;-32
2023/05/23 01:20:39;;;;;;;18.02;14.18;;;14.60;99.90;;;;;;5063132;28;20043;-32
2023/05/23 01:23:05;;;;;;;16.88;14.32;;;14.50;99.90;;;;;;5068347;28;20071;-32
2023/05/23 01:26:05;;;;;;;19.40;14.52;;;14.50;99.90;;;;;;5062920;28;20063;-32
2023/05/23 01:28:36;;;;;;;19.42;14.13;;;14.50;99.90;;;;;;5069219;28;20107;-32
2023/05/23 01:31:05;;;;;;;18.02;14.27;;;14.50;99.90;;;;;;5071729;28;20041;-32
2023/05/23 01:33:32;;;;;;;17.55;14.50;;;14.40;99.90;;;;;;5060674;28;20040;-32
2023/05/23 01:36:02;;;;;;;16.10;14.40;;;14.40;99.90;;;;;;5073136;28;20405;-32
2023/05/23 01:38:28;;;;;;;18.05;14.77;;;14.40;99.90;;;;;;5068715;28;20055;-32
2023/05/23 01:40:54;;;;;;;18.50;14.15;;;14.40;99.90;;;;;;5055538;28;20579;-32
2023/05/23 01:43:21;;;;;;;17.98;14.85;;;14.40;99.90;;;;;;5071050;28;20115;-33
2023/05/23 01:45:48;;;;;;;18.58;14.35;;;14.40;99.90;;;;;;5067961;28;20506;-32
2023/05/23 01:48:15;;;;;;;21.25;16.95;;;14.40;99.90;;;;;;5067390;28;20151;-32
2023/05/23 01:50:45;;;;;;;23.45;16.73;;;14.40;99.90;;;;;;5070044;28;20067;-32
2023/05/23 01:53:12;;;;;;;20.90;17.33;;;14.40;99.90;;;;;;5062434;28;20036;-32
2023/05/23 01:55:40;;;;;;;19.58;16.70;;;14.30;99.90;;;;;;5071994;28;20043;-32
2023/05/23 01:58:07;;;;;;;22.27;16.58;;;14.30;99.90;;;;;;5070516;28;20032;-32
2023/05/23 02:00:33;;;;;;;23.63;16.67;;;14.30;99.90;;;;;;5069353;28;20039;-32
2023/05/23 02:02:59;;;;;;;20.10;16.67;;;14.30;99.90;;;;;;5072645;28;20473;-32
2023/05/23 02:05:26;;;;;;;19.02;15.13;;;14.30;99.90;;;;;;5069554;28;20064;-32
2023/05/23 02:07:51;;;;;;;22.10;16.10;;;14.30;99.90;;;;;;5070438;28;20075;-32
2023/05/23 02:10:18;;;;;;;20.17;16.02;;;14.30;99.90;;;;;;5065520;28;20062;-32
2023/05/23 02:12:44;;;;;;;19.17;14.68;;;14.30;99.90;;;;;;5060387;28;20032;-32
2023/05/23 02:15:10;;;;;;;20.42;15.77;;;14.30;99.90;;;;;;5056243;28;20044;-32
2023/05/23 02:17:37;;;;;;;18.13;14.40;;;14.30;99.90;;;;;;5071296;28;20069;-32
2023/05/23 02:20:05;;;;;;;18.17;14.23;;;14.20;99.90;;;;;;5067856;28;20064;-32
2023/05/23 02:22:31;;;;;;;19.27;14.27;;;14.20;99.90;;;;;;5069843;28;20618;-32
2023/05/23 02:24:56;;;;;;;19.65;13.57;;;14.20;99.90;;;;;;5048446;28;20036;-32
2023/05/23 02:27:22;;;;;;;16.73;13.27;;;14.20;99.90;;;;;;5068388;28;20451;-32
2023/05/23 02:29:48;;;;;;;18.40;12.98;;;14.20;99.90;;;;;;5072374;28;20032;-32
2023/05/23 02:32:13;;;;;;;19.90;12.40;;;14.20;99.90;;;;;;5068659;28;20126;-32
2023/05/23 02:34:39;;;;;;;18.15;13.23;;;14.10;99.90;;;;;;5069502;28;20041;-32
2023/05/23 02:37:05;;;;;;;18.65;13.05;;;14.10;99.90;;;;;;5070940;28;20036;-32
2023/05/23 02:39:31;;;;;;;16.92;12.98;;;14.10;99.90;;;;;;5072070;28;20055;-32
2023/05/23 02:41:56;;;;;;;18.50;12.43;;;14.00;99.90;;;;;;5069856;28;20040;-32
2023/05/23 02:44:22;;;;;;;20.15;12.02;;;14.00;99.90;;;;;;5069646;28;20366;-32
2023/05/23 02:46:48;;;;;;;22.98;12.88;;;14.00;99.90;;;;;;5063798;28;20029;-33
2023/05/23 02:49:14;;;;;;;16.92;12.18;;;14.00;99.90;;;;;;5061301;28;20040;-32
2023/05/23 02:51:39;;;;;;;18.38;10.68;;;13.90;99.90;;;;;;5059346;28;20041;-32
2023/05/23 02:54:05;;;;;;;24.80;13.38;;;14.00;99.90;;;;;;5067130;28;20481;-32
2023/05/23 02:56:31;;;;;;;19.50;11.93;;;13.90;99.90;;;;;;5072298;28;20047;-32
2023/05/23 02:58:56;;;;;;;22.27;13.25;;;13.90;99.90;;;;;;5069728;28;20148;-32
2023/05/23 03:01:22;;;;;;;18.38;11.68;;;13.90;99.90;;;;;;5064423;28;20179;-32
2023/05/23 03:03:48;;;;;;;16.88;11.07;;;13.80;99.90;;;;;;5062635;28;20034;-32
2023/05/23 03:06:15;;;;;;;18.25;10.82;;;13.80;99.90;;;;;;5065273;28;20032;-33
2023/05/23 03:08:42;;;;;;;20.73;11.43;;;13.70;99.90;;;;;;5071027;28;20028;-32
2023/05/23 03:11:08;;;;;;;13.88;10.00;;;13.70;99.90;;;;;;5064882;28;20094;-32
2023/05/23 03:13:34;;;;;;;18.33;9.65;;;13.60;99.90;;;;;;5049132;28;20486;-32
2023/05/23 03:16:00;;;;;;;17.00;10.90;;;13.60;99.90;;;;;;5063336;28;20040;-33
2023/05/23 03:18:26;;;;;;;14.45;9.35;;;13.60;99.90;;;;;;5064171;28;20036;-33
2023/05/23 03:20:52;;;;;;;16.40;9.23;;;13.60;99.90;;;;;;5073141;28;20046;-33
2023/05/23 03:23:17;;;;;;;13.82;9.25;;;13.60;99.90;;;;;;5076277;28;20032;-33
2023/05/23 03:25:43;;;;;;;11.35;8.60;;;13.50;99.90;;;;;;5076569;28;20420;-33
2023/05/23 03:28:11;;;;;;;13.45;8.52;;;13.50;99.90;;;;;;5073462;28;20028;-33
2023/05/23 03:30:37;;;;;;;14.15;9.30;;;13.40;99.90;;;;;;5076148;28;20067;-32
2023/05/23 03:33:03;;;;;;;14.48;9.35;;;13.40;99.90;;;;;;5072691;28;20107;-32
2023/05/23 03:35:29;;;;;;;17.08;10.00;;;13.40;99.90;;;;;;5069579;28;20033;-32
2023/05/23 03:37:54;;;;;;;20.38;10.85;;;13.30;99.90;;;;;;5074625;28;20109;-32
2023/05/23 03:40:20;;;;;;;17.55;9.88;;;13.30;99.90;;;;;;5071421;28;20043;-32
2023/05/23 03:42:48;;;;;;;17.17;10.20;;;13.20;99.90;;;;;;5075973;28;20089;-32
2023/05/23 03:45:14;;;;;;;23.67;10.40;;;13.20;99.90;;;;;;5069292;28;20115;-32
2023/05/23 03:47:41;;;;;;;22.33;9.38;;;13.20;99.90;;;;;;5073017;28;20366;-32
2023/05/23 03:50:07;;;;;;;18.92;9.52;;;13.20;99.90;;;;;;5073521;28;20032;-32
2023/05/23 03:52:33;;;;;;;17.55;9.20;;;13.20;99.90;;;;;;5075567;28;20044;-32
2023/05/23 03:54:59;;;;;;;17.67;8.25;;;13.20;99.90;;;;;;5074540;28;20059;-32
2023/05/23 03:57:24;;;;;;;17.58;9.25;;;13.10;99.90;;;;;;5075591;28;20492;-32
2023/05/23 03:59:50;;;;;;;20.48;9.45;;;13.10;99.90;;;;;;5075533;28;20541;-32
2023/05/23 04:02:16;;;;;;;19.70;9.70;;;13.10;99.90;;;;;;5075209;28;20075;-32
2023/05/23 04:04:42;;;;;;;19.63;9.55;;;13.10;99.90;;;;;;5067521;28;20046;-32
2023/05/23 04:07:08;;;;;;;16.52;9.30;;;13.10;99.90;;;;;;5070925;28;20125;-33
2023/05/23 04:09:34;;;;;;;16.35;8.95;;;13.00;99.90;;;;;;5069057;28;20025;-32
2023/05/23 04:12:00;;;;;;;17.52;9.20;;;13.10;99.90;;;;;;5075517;28;20051;-32
2023/05/23 04:14:26;;;;;;;16.92;9.13;;;13.10;99.90;;;;;;5072018;28;20408;-32
2023/05/23 04:16:52;;;;;;;16.10;8.13;;;13.00;99.90;;;;;;5075635;28;20047;-31
2023/05/23 04:19:18;;;;;;;18.45;9.00;;;13.00;99.90;;;;;;5076300;28;20036;-32
2023/05/23 04:21:44;;;;;;;15.68;7.97;;;13.00;99.90;;;;;;5094339;28;20032;-32
2023/05/23 04:24:10;;;;;;;14.65;8.57;;;13.00;99.90;;;;;;5094391;28;20036;-31
2023/05/23 04:26:41;;;;;;;14.57;7.85;;;12.90;99.90;;;;;;5095354;28;20115;-32
2023/05/23 04:29:07;;;;;;;14.23;7.97;;;12.90;99.90;;;;;;5095894;28;20044;-32
2023/05/23 04:31:33;;;;;;;17.02;7.63;;;12.90;99.90;;;;;;5076679;28;20096;-32
2023/05/23 04:33:58;;;;;;;16.58;8.13;;;12.90;99.90;;;;;;5075342;28;20043;-32
2023/05/23 04:36:24;;;;;;;13.02;7.32;;;12.90;99.90;;;;;;5059679;28;20050;-32
2023/05/23 04:38:50;;;;;;;15.98;8.20;;;12.90;99.90;;;;;;5076205;28;20476;-30
2023/05/23 04:41:16;;;;;;;15.70;8.75;;;12.90;99.90;;;;;;5094062;28;20040;-30
2023/05/23 04:43:41;;;;;;;14.35;7.88;;;12.90;99.90;;;;;;5075630;28;20036;-30
2023/05/23 04:46:12;;;;;;;13.18;7.30;;;12.90;99.90;;;;;;5074898;28;20032;-33
2023/05/23 04:48:38;;;;;;;13.27;7.25;;;12.90;99.90;;;;;;5053891;28;20113;-33
2023/05/23 04:51:07;;;;;;;13.85;8.02;;;12.90;99.90;;;;;;5065537;28;20044;-33
2023/05/23 04:53:35;;;;;;;13.95;7.40;;;12.90;99.90;;;;;;5069207;28;20044;-31
2023/05/23 04:56:01;;;;;;;14.57;6.32;;;12.90;99.90;;;;;;5072952;28;20476;-31
2023/05/23 04:58:27;;;;;;;13.25;7.00;;;12.90;99.90;;;;;;5067821;28;20039;-32
2023/05/23 05:00:53;;;;;;;15.88;6.35;;;12.90;99.90;;;;;;5061168;28;20051;-33
2023/05/23 05:03:18;;;;;;;12.52;6.82;;;12.80;99.90;;;;;;5092122;28;20032;-33
2023/05/23 05:05:44;;;;;;;15.00;6.18;;;12.90;99.90;;;;;;5063393;28;20404;-33
2023/05/23 05:08:10;;;;;;;13.07;6.25;;;12.80;99.90;;;;;;5072171;28;20492;-33
2023/05/23 05:10:39;;;;;;;15.93;6.32;;;12.80;99.90;;;;;;5054575;28;20115;-33
2023/05/23 05:13:04;;;;;;;14.75;6.80;;;12.80;99.90;;;;;;5072680;28;20481;-33
2023/05/23 05:15:31;;;;;;;15.13;7.18;;;12.80;99.90;;;;;;5072006;28;20044;-33
2023/05/23 05:17:56;;;;;;;14.40;7.20;;;12.80;99.90;;;;;;5085178;28;20173;-33
2023/05/23 05:20:22;;;;;;;13.25;6.68;;;12.80;99.90;;;;;;5071692;28;20502;-33
2023/05/23 05:22:57;;;;;;;13.65;6.68;;;12.70;99.90;;;;;;5063699;28;20036;-33
2023/05/23 05:25:23;;;;;;;15.15;6.93;;;12.80;99.90;;;;;;5073036;28;20039;-33
2023/05/23 05:27:49;;;;;;;14.18;6.47;;;12.70;99.90;;;;;;5070889;28;20111;-31
2023/05/23 05:30:15;;;;;;;19.25;7.80;;;12.70;99.90;;;;;;5072525;28;20165;-33
2023/05/23 05:32:44;;;;;;;15.55;6.25;;;12.80;99.90;;;;;;5069324;28;20443;-32
2023/05/23 05:35:12;;;;;;;11.35;5.65;;;12.70;99.90;;;;;;5044615;28;20044;-32
2023/05/23 05:37:38;;;;;;;10.80;5.60;;;12.70;99.90;;;;;;5062308;28;20091;-32
2023/05/23 05:40:07;;;;;;;10.15;5.18;;;12.80;99.90;;;;;;5066509;28;20040;-32
2023/05/23 05:42:33;;;;;;;12.05;5.10;;;12.70;99.90;;;;;;5067632;28;20431;-32
2023/05/23 05:44:58;;;;;;;12.15;5.55;;;12.60;99.90;;;;;;5062631;28;20122;-32
2023/05/23 05:47:24;;;;;;;13.23;6.35;;;12.60;99.90;;;;;;5062165;28;20068;-32
2023/05/23 05:49:50;;;;;;;14.25;6.18;;;12.60;99.90;;;;;;5068846;28;20093;-32
2023/05/23 05:52:16;;;;;;;10.55;6.78;;;12.60;99.90;;;;;;5080524;28;20564;-33
2023/05/23 05:54:41;;;;;;;17.35;5.70;;;12.50;99.90;;;;;;5069149;28;20038;-33
2023/05/23 05:57:07;;;;;;;15.65;6.80;;;12.50;99.90;;;;;;5060613;28;20396;-33
2023/05/23 05:59:33;;;;;;;17.67;7.80;;;12.50;99.90;;;;;;5067528;28;20039;-32
2023/05/23 06:01:59;;;;;;;19.67;8.60;;;12.50;99.90;;;;;;5072531;28;20035;-32
2023/05/23 06:04:25;;;;;;;12.45;7.85;;;12.40;99.90;;;;;;5072791;28;20032;-32
2023/05/23 06:06:50;;;;;;;16.58;7.53;;;12.40;99.90;;;;;;5066027;28;20161;-32
2023/05/23 06:09:16;;;;;;;16.77;7.38;;;12.40;99.90;;;;;;5051810;28;20040;-33
2023/05/23 06:11:42;;;;;;;14.13;7.80;;;12.30;99.90;;;;;;5069706;28;20101;-32
2023/05/23 06:14:08;;;;;;;17.98;8.43;;;12.30;99.90;;;;;;5070788;28;20039;-33
2023/05/23 06:16:34;;;;;;;15.77;8.20;;;12.30;99.90;;;;;;5060958;28;20036;-32
2023/05/23 06:19:00;;;;;;;16.60;7.20;;;12.20;99.90;;;;;;5069793;28;20039;-32
2023/05/23 06:21:26;;;;;;;19.00;8.75;;;12.20;99.90;;;;;;5061825;28;20149;-33
2023/05/23 06:23:52;;;;;;;15.43;8.45;;;12.20;99.90;;;;;;5069239;28;20043;-32
2023/05/23 06:26:18;;;;;;;15.00;7.68;;;12.10;99.90;;;;;;5072262;28;20035;-32
2023/05/23 06:28:44;;;;;;;17.17;7.43;;;12.10;99.90;;;;;;5067786;28;20051;-32
2023/05/23 06:31:09;;;;;;;15.77;6.72;;;12.10;99.90;;;;;;5065290;28;20113;-34
2023/05/23 06:33:35;;;;;;;19.00;7.38;;;12.10;99.90;;;;;;5070239;28;20052;-32
2023/05/23 06:36:01;;;;;;;13.98;6.82;;;12.10;99.90;;;;;;5072962;28;20043;-32
2023/05/23 06:38:30;;;;;;;16.45;7.20;;;12.10;99.90;;;;;;5072380;28;20028;-32
2023/05/23 06:40:55;;;;;;;12.30;6.38;;;12.10;99.90;;;;;;5055168;28;20036;-32
2023/05/23 06:43:21;;;;;;;13.20;6.22;;;12.10;99.90;;;;;;5071455;28;20032;-32
2023/05/23 06:45:47;;;;;;;13.80;5.95;;;12.10;99.90;;;;;;5066201;28;20028;-32
2023/05/23 06:48:13;;;;;;;9.93;5.85;;;12.10;99.90;;;;;;5071963;28;20059;-32
2023/05/23 06:50:40;;;;;;;10.93;6.10;;;12.10;99.90;;;;;;5066929;28;20125;-35
2023/05/23 06:53:06;;;;;;;13.38;5.90;;;12.20;99.90;;;;;;5071020;28;20033;-33
2023/05/23 06:55:32;;;;;;;13.85;6.32;;;12.20;99.90;;;;;;5088996;28;20075;-32
2023/05/23 06:57:59;;;;;;;12.73;6.65;;;12.10;99.90;;;;;;5066373;28;20055;-32
2023/05/23 07:00:25;;;;;;;12.57;5.93;;;12.10;99.90;;;;;;5074684;28;20032;-32
2023/05/23 07:02:51;;;;;;;9.93;5.07;;;12.10;99.90;;;;;;5070080;28;20047;-32
2023/05/23 07:05:17;;;;;;;14.52;4.78;;;12.00;99.90;;;;;;5064108;28;20434;-32
2023/05/23 07:07:42;;;;;;;11.43;4.78;;;12.00;99.90;;;;;;5067974;28;20040;-33
2023/05/23 07:10:09;;;;;;;16.05;5.38;;;12.00;99.90;;;;;;5075160;28;20078;-32
2023/05/23 07:12:35;;;;;;;9.63;4.47;;;12.10;99.90;;;;;;5071856;28;20429;-32
2023/05/23 07:15:01;;;;;;;7.97;4.60;;;12.10;99.90;;;;;;5074641;28;20032;-32
2023/05/23 07:17:29;;;;;;;9.85;4.10;;;12.10;99.90;;;;;;5061366;28;20032;-32
2023/05/23 07:19:55;;;;;;;12.15;4.57;;;12.20;99.90;;;;;;5055597;28;20040;-32
2023/05/23 07:22:21;;;;;;;10.25;4.00;;;12.30;99.90;;;;;;5073501;28;20039;-32
2023/05/23 07:24:46;;;;;;;11.77;4.47;;;12.40;99.90;;;;;;5070435;28;20060;-32
2023/05/23 07:27:12;;;;;;;9.25;4.15;;;12.40;99.90;;;;;;5069724;28;20036;-32
2023/05/23 07:29:38;;;;;;;9.90;4.28;;;12.40;99.90;;;;;;5071425;28;20036;-32
2023/05/23 07:32:04;;;;;;;12.70;4.20;;;12.50;99.90;;;;;;5074980;28;20032;-32
2023/05/23 07:34:30;;;;;;;11.00;4.47;;;12.50;99.90;;;;;;5074594;28;20119;-32
2023/05/23 07:36:56;;;;;;;10.50;3.63;;;12.50;99.90;;;;;;5064907;28;20143;-32
2023/05/23 07:39:23;;;;;;;12.05;4.05;;;12.50;99.90;;;;;;5036588;28;1096835;-32
2023/05/23 07:41:56;;;;;;;12.18;4.70;;;12.60;99.90;;;;;;5075150;28;20113;-32
2023/05/23 07:44:22;;;;;;;12.90;4.45;;;12.80;99.90;;;;;;5056663;28;20032;-32
2023/05/23 07:46:48;;;;;;;10.57;4.18;;;12.80;99.90;;;;;;5052832;28;20067;-32
2023/05/23 07:49:14;;;;;;;17.45;5.07;;;12.90;99.90;;;;;;5072342;28;20032;-32
2023/05/23 07:51:40;;;;;;;10.25;4.38;;;13.00;99.90;;;;;;5071222;28;20109;-32
2023/05/23 07:54:06;;;;;;;18.80;5.47;;;13.10;99.90;;;;;;5071373;28;20094;-32
2023/05/23 07:56:32;;;;;;;14.27;4.57;;;13.20;99.90;;;;;;5070377;28;20032;-33
2023/05/23 07:58:57;;;;;;;15.25;4.63;;;13.30;99.90;;;;;;5065964;28;20119;-33
2023/05/23 08:01:24;;;;;;;12.82;4.07;;;13.40;99.90;;;;;;5088208;28;20083;-32
2023/05/23 08:03:50;;;;;;;12.38;4.43;;;13.40;99.90;;;;;;5074064;28;20561;-32
2023/05/23 08:06:15;;;;;;;16.02;4.35;;;13.40;99.90;;;;;;5068996;28;20111;-32
2023/05/23 08:08:42;;;;;;;14.45;4.68;;;13.30;99.90;;;;;;5071588;28;20111;-32
2023/05/23 08:11:08;;;;;;;13.73;4.72;;;13.20;99.90;;;;;;5070855;28;20046;-33
2023/05/23 08:13:34;;;;;;;15.70;4.38;;;13.20;99.90;;;;;;5075987;28;20078;-32
2023/05/23 08:16:00;;;;;;;12.35;3.88;;;13.20;99.90;;;;;;5088878;28;20043;-34
2023/05/23 08:18:26;;;;;;;14.73;4.65;;;13.20;99.90;;;;;;5070720;28;20093;-31
2023/05/23 08:20:53;;;;;;;12.75;4.25;;;13.30;99.90;;;;;;5077137;28;20455;-31
2023/05/23 08:23:18;;;;;;;12.85;3.97;;;13.30;99.90;;;;;;5076996;28;20111;-31
2023/05/23 08:25:44;;;;;;;11.98;3.55;;;13.40;99.90;;;;;;5076799;28;20115;-31
2023/05/23 08:28:10;;;;;;;11.65;3.95;;;13.50;99.90;;;;;;5076498;28;20079;-32
2023/05/23 08:30:36;;;;;;;15.10;4.05;;;13.60;99.90;;;;;;5076367;28;20036;-31
2023/05/23 08:33:03;;;;;;;10.38;3.85;;;13.70;99.90;;;;;;5076519;28;20035;-31
2023/05/23 08:35:33;;;;;;;10.43;3.55;;;13.90;99.90;;;;;;5059597;28;20123;-31
2023/05/23 08:38:00;;;;;;;12.02;3.53;;;14.00;99.90;;;;;;5076360;28;20039;-31
2023/05/23 08:40:29;;;;;;;14.95;3.90;;;14.00;99.90;;;;;;5076231;28;20077;-31
2023/05/23 08:42:55;;;;;;;12.27;4.22;;;14.00;99.90;;;;;;5076484;28;20040;-31
2023/05/23 08:45:20;;;;;;;13.85;4.00;;;13.90;99.90;;;;;;5076269;28;20535;-31
2023/05/23 08:47:47;;;;;;;13.02;3.67;;;13.90;99.90;;;;;;5076010;28;20181;-31
2023/05/23 08:50:15;;;;;;;16.58;4.45;;;13.90;99.90;;;;;;5059697;28;20477;-31
2023/05/23 08:52:54;;;;;;;11.30;3.95;;;14.10;99.90;;;;;;5076256;28;20043;-33
2023/05/23 08:55:27;;;;;;;14.40;3.90;;;14.10;99.90;;;;;;5075755;28;20126;-32
2023/05/23 08:57:54;;;;;;;12.52;3.97;;;14.30;99.90;;;;;;5076131;28;20044;-32
2023/05/23 09:00:22;;;;;;;11.57;3.72;;;14.50;99.90;;;;;;5075818;28;20055;-31
2023/05/23 09:02:48;;;;;;;10.52;4.55;;;14.80;99.90;;;;;;5075942;28;20046;-32
2023/05/23 09:05:14;;;;;;;11.20;4.18;;;15.20;99.90;;;;;;5076080;28;20125;-32
2023/05/23 09:07:40;;;;;;;12.38;4.10;;;15.40;99.90;;;;;;5075479;28;20071;-32
2023/05/23 09:10:09;;;;;;;15.02;4.60;;;15.50;99.90;;;;;;5075924;28;20078;-31
2023/05/23 09:12:36;;;;;;;13.52;4.03;;;15.40;99.90;;;;;;5075866;28;20075;-32
2023/05/23 09:15:09;;;;;;;10.52;3.63;;;15.20;99.90;;;;;;5059268;28;20044;-32
2023/05/23 09:17:35;;;;;;;14.10;3.95;;;15.20;99.90;;;;;;5075594;28;20044;-32
2023/05/23 09:20:12;;;;;;;13.68;4.45;;;15.30;99.90;;;;;;5074914;28;20480;-31
2023/05/23 09:22:37;;;;;;;14.25;4.05;;;15.40;99.90;;;;;;5075197;28;20040;-32
2023/05/23 09:25:04;;;;;;;12.57;3.85;;;15.60;99.90;;;;;;5075364;28;20036;-31
2023/05/23 09:27:30;;;;;;;13.77;4.15;;;15.60;99.90;;;;;;5075303;28;20036;-32
2023/05/23 09:29:56;;;;;;;17.00;3.88;;;15.50;99.90;;;;;;5075172;28;20090;-31
2023/05/23 09:32:21;;;;;;;13.55;4.10;;;15.60;99.90;;;;;;5075387;28;20036;-32
2023/05/23 09:34:57;;;;;;;12.80;4.70;;;15.70;99.90;;;;;;5075507;28;20047;-32
2023/05/23 09:37:38;;;;;;;13.20;3.95;;;16.00;99.90;;;;;;5075403;28;20093;-32
2023/05/23 09:40:14;;;;;;;8.88;3.28;;;16.30;99.90;;;;;;5075009;28;20426;-32
2023/05/23 09:42:46;;;;;;;9.73;4.05;;;16.40;99.90;;;;;;5075308;28;20131;-32
2023/05/23 09:45:15;;;;;;;10.95;4.05;;;16.50;99.90;;;;;;5075094;28;20044;-32
2023/05/23 09:47:51;;;;;;;15.27;3.90;;;16.60;99.90;;;;;;5075105;28;20501;-32
2023/05/23 09:50:18;;;;;;;12.40;3.42;;;16.60;99.90;;;;;;5074711;28;20046;-32
2023/05/23 09:52:45;;;;;;;9.32;3.65;;;16.60;99.90;;;;;;5075111;28;20036;-32
2023/05/23 09:55:11;;;;;;;11.65;3.72;;;16.40;99.90;;;;;;5075246;28;20075;-32
2023/05/23 09:57:41;;;;;;;13.45;3.80;;;16.20;99.90;;;;;;5074828;28;20460;-32
2023/05/23 10:00:10;;;;;;;8.20;3.35;;;16.30;99.90;;;;;;5074806;28;20100;-32
2023/05/23 10:02:47;;;;;;;10.85;4.03;;;16.20;99.90;;;;;;5057882;28;20094;-31
2023/05/23 10:05:30;;;;;;;12.27;4.10;;;16.50;99.90;;;;;;5074954;28;20043;-32
2023/05/23 10:07:59;;;;;;;10.85;3.88;;;16.70;99.90;;;;;;5074769;28;20036;-32
2023/05/23 10:10:27;;;;;;;10.98;3.47;;;16.80;99.90;;;;;;5074738;28;20396;-32
2023/05/23 10:12:56;;;;;;;9.35;3.42;;;16.90;99.90;;;;;;5074309;28;20043;-33
2023/05/23 10:15:28;;;;;;;8.07;3.65;;;16.60;99.90;;;;;;5078769;28;20040;-32
2023/05/23 10:18:09;;;;;;;7.22;3.13;;;16.60;99.90;;;;;;5054877;28;20417;-32
2023/05/23 10:20:38;;;;;;;8.73;3.55;;;16.40;99.90;;;;;;5038088;28;20501;-32
2023/05/23 10:23:04;;;;;;;11.73;3.83;;;16.70;99.90;;;;;;5054557;28;20123;-32
2023/05/23 10:25:30;;;;;;;11.80;3.92;;;17.10;99.90;;;;;;5055703;28;20094;-32
2023/05/23 10:27:58;;;;;;;16.45;4.15;;;17.40;99.90;;;;;;5068965;28;20036;-31
2023/05/23 10:30:25;;;;;;;7.45;3.45;;;17.60;99.90;;;;;;5073517;28;20127;-32
2023/05/23 10:32:52;;;;;;;10.52;3.47;;;17.60;99.90;;;;;;5074815;28;20464;-32
2023/05/23 10:35:55;;;;;;;11.65;4.20;;;18.00;99.90;;;;;;5074636;28;20047;-32
2023/05/23 10:38:53;;;;;;;10.43;3.30;;;18.50;99.90;;;;;;5074582;28;20047;-32
2023/05/23 10:41:30;;;;;;;10.20;3.10;;;19.00;99.90;;;;;;5073684;28;20048;-32
2023/05/23 10:44:14;;;;;;;10.98;3.63;;;19.00;99.90;;;;;;5074508;28;20397;-32
2023/05/23 10:46:56;;;;;;;9.98;2.75;;;18.80;99.90;;;;;;5092372;28;20115;-32
2023/05/23 10:49:40;;;;;;;9.65;3.38;;;18.60;99.90;;;;;;5074199;28;20119;-32
2023/05/23 10:52:07;;;;;;;8.32;2.85;;;18.80;99.90;;;;;;5074321;28;20036;-32
2023/05/23 10:54:51;;;;;;;8.13;2.78;;;19.20;99.90;;;;;;5074670;28;20040;-32
2023/05/23 10:57:19;;;;;;;6.82;2.60;;;19.60;99.90;;;;;;5074582;28;20436;-33
2023/05/23 10:59:46;;;;;;;7.63;3.05;;;20.00;99.90;;;;;;5074521;28;20032;-33
2023/05/23 11:02:16;;;;;;;12.30;3.45;;;20.00;99.90;;;;;;5074313;28;20075;-32
2023/05/23 11:04:43;;;;;;;12.40;3.72;;;19.70;99.90;;;;;;5074011;28;20036;-32
2023/05/23 11:07:28;;;;;;;9.10;3.42;;;19.40;99.90;;;;;;5074226;28;20093;-32
2023/05/23 11:10:10;;;;;;;12.05;3.70;;;19.20;99.90;;;;;;5074216;28;20040;-32
2023/05/23 11:12:39;;;;;;;7.18;2.60;;;19.20;99.90;;;;;;5074129;28;20040;-32
2023/05/23 11:15:17;;;;;;;8.40;2.88;;;19.10;99.90;;;;;;5074389;28;20047;-32
2023/05/23 11:17:54;;;;;;;7.68;2.67;;;19.30;99.90;;;;;;5056687;28;20048;-32
2023/05/23 11:20:26;;;;;;;10.45;3.08;;;19.30;99.90;;;;;;5053946;28;20040;-32
2023/05/23 11:22:59;;;;;;;6.63;2.70;;;19.20;99.90;;;;;;5054319;28;20048;-34
2023/05/23 11:25:41;;;;;;;5.88;2.50;;;19.50;94.10;;;;;;5063491;28;20032;-33
2023/05/23 11:28:07;;;;;;;12.20;2.80;;;19.40;97.30;;;;;;5066799;28;20036;-33
2023/05/23 11:30:37;;;;;;;7.55;2.67;;;19.00;99.90;;;;;;5073434;28;20123;-33
2023/05/23 11:33:15;;;;;;;13.43;3.38;;;18.60;99.90;;;;;;5070095;28;20039;-33
2023/05/23 11:35:42;;;;;;;9.32;2.78;;;18.40;99.90;;;;;;5069990;28;20036;-33
2023/05/23 11:38:08;;;;;;;9.00;2.50;;;18.40;99.90;;;;;;5073483;28;20101;-33
2023/05/23 11:40:41;;;;;;;8.68;3.00;;;18.30;99.90;;;;;;5067718;28;20142;-33
2023/05/23 11:43:13;;;;;;;8.10;2.50;;;18.50;99.90;;;;;;5068734;28;20077;-32
2023/05/23 11:45:39;;;;;;;8.95;2.88;;;18.70;99.90;;;;;;5060533;28;20042;-33
2023/05/23 11:48:10;;;;;;;10.10;3.17;;;18.70;99.90;;;;;;5076812;28;20036;-33
2023/05/23 11:50:46;;;;;;;12.23;3.17;;;19.10;99.90;;;;;;5074519;28;20031;-33
2023/05/23 11:55:47;;;;;;;9.15;3.33;;;19.20;99.90;;;;;;5073457;28;20059;-33
2023/05/23 11:58:12;;;;;;;9.52;3.20;;;19.50;99.90;;;;;;5057200;28;20087;-33
2023/05/23 12:00:45;;;;;;;9.20;3.20;;;19.60;99.90;;;;;;5053877;28;20456;-33
2023/05/23 12:03:11;;;;;;;9.45;2.63;;;19.30;83.50;;;;;;5037039;28;20041;-35
2023/05/23 12:05:37;;;;;;;7.45;2.67;;;19.10;95.70;;;;;;5037145;28;20052;-33
2023/05/23 12:08:03;;;;;;;7.20;2.90;;;19.40;97.30;;;;;;5037298;28;20029;-35
2023/05/23 12:10:28;;;;;;;10.93;2.83;;;19.80;99.80;;;;;;5037130;28;20073;-33
2023/05/23 12:12:54;;;;;;;9.25;2.75;;;19.70;97.60;;;;;;5037224;28;20170;-34
2023/05/23 12:15:28;;;;;;;7.40;3.17;;;19.60;96.50;;;;;;5036756;28;20048;-34
2023/05/23 12:17:54;;;;;;;;;;;19.50;90.60;;;;;;5047817;28;20072;-34
2023/05/23 12:20:21;;;;;;;8.93;2.72;;;19.80;84.00;;;;;;5056677;28;20421;-34
2023/05/23 12:22:47;;;;;;;9.93;2.75;;;20.20;93.90;;;;;;5056720;28;20040;-34
2023/05/23 12:25:13;;;;;;;8.02;2.05;;;20.20;91.80;;;;;;5056362;28;20040;-33
2023/05/23 12:27:42;;;;;;;7.70;2.30;;;20.70;88.30;;;;;;5056787;28;20036;-34
2023/05/23 12:30:09;;;;;;;7.03;2.75;;;21.30;75.30;;;;;;5056710;28;20040;-34
2023/05/23 12:32:46;;;;;;;8.50;3.03;;;21.50;67.30;;;;;;5056816;28;20103;-34
2023/05/23 12:35:14;;;;;;;8.93;3.17;;;21.90;59.70;;;;;;5056738;28;20041;-34
2023/05/23 12:37:42;;;;;;;11.15;3.20;;;21.40;61.60;;;;;;5056261;28;20052;-33
2023/05/23 12:40:13;;;;;;;10.35;3.10;;;20.70;60.10;;;;;;5056408;28;20083;-34
2023/05/23 12:42:51;;;;;;;7.72;2.90;;;20.30;62.50;;;;;;5056008;28;20076;-34